createdAt,value
2019-02-10T00:02:45.919Z,5.23
2019-02-10T00:05:14.609Z,5.18
2019-02-10T00:07:43.266Z,5.09
2019-02-10T00:10:11.980Z,5.01
2019-02-10T00:12:40.631Z,4.86
2019-02-10T00:15:09.290Z,4.84
2019-02-10T00:17:37.971Z,4.73
2019-02-10T00:20:06.721Z,4.83
2019-02-10T00:22:35.413Z,4.70
2019-02-10T00:27:58.791Z,4.97
2019-02-10T00:30:27.575Z,5.00
2019-02-10T00:32:56.221Z,4.79
2019-02-10T00:35:24.912Z,4.74
2019-02-10T00:37:53.551Z,4.77
2019-02-10T00:40:22.253Z,4.66
2019-02-10T00:42:50.897Z,4.44
2019-02-10T00:45:19.589Z,4.31
2019-02-10T00:47:48.288Z,4.23
2019-02-10T00:50:16.984Z,4.20
2019-02-10T00:52:45.687Z,4.14
2019-02-10T00:55:14.341Z,4.22
2019-02-10T00:57:43.016Z,4.27
2019-02-10T01:02:51.000Z,4.31
2019-02-10T01:05:19.741Z,4.19
2019-02-10T01:07:48.495Z,4.21
2019-02-10T01:13:25.386Z,4.36
2019-02-10T01:15:54.165Z,4.42
2019-02-10T01:18:22.813Z,4.59
2019-02-10T01:20:51.501Z,4.72
2019-02-10T01:23:20.154Z,4.92
2019-02-10T01:26:08.105Z,5.01
2019-02-10T01:28:36.793Z,5.14
2019-02-10T01:31:05.795Z,5.24
2019-02-10T01:33:34.483Z,5.33
2019-02-10T01:36:03.206Z,5.32
2019-02-10T01:38:31.914Z,5.42
2019-02-10T01:41:00.604Z,5.44
2019-02-10T01:43:29.304Z,5.45
2019-02-10T01:45:57.948Z,5.42
2019-02-10T01:48:27.479Z,5.45
2019-02-10T01:50:57.045Z,5.42
2019-02-10T01:53:25.676Z,5.38
2019-02-10T01:55:54.431Z,5.38
2019-02-10T01:58:23.077Z,5.37
2019-02-10T02:01:11.006Z,5.42
2019-02-10T02:03:39.652Z,5.42
2019-02-10T02:06:08.351Z,5.43
2019-02-10T02:08:37.073Z,5.38
2019-02-10T02:11:05.761Z,5.38
2019-02-10T02:13:34.423Z,5.38
2019-02-10T02:16:03.116Z,5.36
2019-02-10T02:18:31.849Z,5.33
2019-02-10T02:23:48.210Z,5.33
2019-02-10T02:26:36.101Z,5.35
2019-02-10T02:29:04.740Z,5.42
2019-02-10T02:31:33.435Z,5.55
2019-02-10T02:34:21.204Z,5.61
2019-02-10T02:36:49.898Z,5.58
2019-02-10T02:39:18.548Z,5.59
2019-02-10T02:41:47.237Z,5.72
2019-02-10T02:49:37.764Z,5.58
2019-02-10T02:52:06.395Z,5.65
2019-02-10T02:54:54.339Z,5.75
2019-02-10T02:57:42.250Z,5.67
2019-02-10T03:00:50.739Z,5.63
2019-02-10T03:03:19.510Z,5.65
2019-02-10T03:05:48.209Z,5.57
2019-02-10T03:08:16.893Z,5.55
2019-02-10T03:10:45.576Z,5.54
2019-02-10T03:13:14.211Z,5.77
2019-02-10T03:15:42.980Z,5.75
2019-02-10T03:18:11.625Z,5.71
2019-02-10T03:20:40.394Z,5.72
2019-02-10T03:23:09.085Z,5.78
2019-02-10T03:25:37.802Z,5.79
2019-02-10T03:28:06.488Z,5.74
2019-02-10T03:30:35.144Z,5.74
2019-02-10T03:33:03.855Z,5.75
2019-02-10T03:35:32.573Z,5.73
2019-02-10T03:38:01.278Z,5.79
2019-02-10T03:40:29.919Z,5.86
2019-02-10T03:42:58.759Z,5.88
2019-02-10T03:45:28.985Z,5.86
2019-02-10T03:47:57.743Z,5.82
2019-02-10T03:50:45.745Z,5.82
2019-02-10T03:53:14.432Z,5.99
2019-02-10T03:58:30.771Z,6.22
2019-02-10T04:00:59.432Z,6.23
2019-02-10T04:03:28.150Z,6.35
2019-02-10T04:05:56.835Z,6.48
2019-02-10T04:08:25.528Z,6.55
2019-02-10T04:10:54.178Z,6.59
2019-02-10T04:13:22.971Z,6.62
2019-02-10T04:15:51.625Z,6.63
2019-02-10T04:18:20.305Z,6.67
2019-02-10T04:20:49.023Z,6.73
2019-02-10T04:23:17.715Z,6.74
2019-02-10T04:26:05.657Z,6.72
2019-02-10T04:28:34.305Z,6.70
2019-02-10T04:31:02.987Z,6.72
2019-02-10T04:33:31.643Z,6.81
2019-02-10T04:36:00.364Z,6.81
2019-02-10T04:38:48.235Z,6.82
2019-02-10T04:41:36.089Z,6.77
2019-02-10T04:46:39.449Z,6.80
2019-02-10T04:49:08.140Z,6.80
2019-02-10T04:51:37.336Z,6.85
2019-02-10T04:54:05.991Z,6.96
2019-02-10T04:56:34.630Z,7.00
2019-02-10T04:59:03.455Z,6.96
2019-02-10T05:01:51.274Z,6.97
2019-02-10T05:04:20.045Z,6.88
2019-02-10T05:06:48.704Z,6.95
2019-02-10T05:09:36.507Z,7.01
2019-02-10T05:12:05.144Z,7.02
2019-02-10T05:14:33.841Z,6.97
2019-02-10T05:17:02.508Z,6.89
2019-02-10T05:19:31.169Z,6.91
2019-02-10T05:22:19.203Z,6.97
2019-02-10T05:24:47.858Z,6.97
2019-02-10T05:27:35.729Z,7.04
2019-02-10T05:30:44.212Z,7.05
2019-02-10T05:33:12.927Z,7.05
2019-02-10T05:35:41.670Z,7.08
2019-02-10T05:38:10.375Z,7.10
2019-02-10T05:40:39.087Z,7.09
2019-02-10T05:43:07.781Z,7.14
2019-02-10T05:45:36.490Z,7.11
2019-02-10T05:48:05.148Z,7.13
2019-02-10T05:50:33.813Z,7.06
2019-02-10T05:53:21.754Z,6.99
2019-02-10T05:56:09.584Z,6.99
2019-02-10T05:58:38.291Z,7.04
2019-02-10T06:01:45.470Z,6.98
2019-02-10T06:04:14.151Z,6.96
2019-02-10T06:07:01.992Z,6.97
2019-02-10T06:09:30.689Z,7.01
2019-02-10T06:11:59.407Z,7.03
2019-02-10T06:14:28.152Z,6.99
2019-02-10T06:16:56.790Z,6.97
2019-02-10T06:19:25.430Z,7.01
2019-02-10T06:21:54.129Z,6.90
2019-02-10T06:24:42.071Z,6.88
2019-02-10T06:27:30.034Z,6.87
2019-02-10T06:30:17.874Z,6.88
2019-02-10T06:32:46.558Z,6.92
2019-02-10T06:35:15.263Z,6.93
2019-02-10T06:38:03.143Z,6.96
2019-02-10T06:40:31.834Z,6.93
2019-02-10T06:43:00.581Z,6.94
2019-02-10T06:45:29.343Z,6.96
2019-02-10T06:47:58.062Z,6.93
2019-02-10T06:50:26.715Z,6.86
2019-02-10T06:55:43.057Z,6.90
2019-02-10T06:58:11.705Z,6.86
2019-02-10T07:00:59.546Z,6.90
2019-02-10T07:04:08.006Z,6.93
2019-02-10T07:06:36.761Z,6.92
2019-02-10T07:09:45.236Z,6.95
2019-02-10T07:12:52.344Z,6.97
2019-02-10T07:15:59.488Z,7.20
2019-02-10T07:19:06.644Z,7.15
2019-02-10T07:22:15.106Z,7.17
2019-02-10T07:25:23.574Z,7.31
2019-02-10T07:28:32.041Z,7.25
2019-02-10T07:31:20.055Z,7.35
2019-02-10T07:34:28.538Z,7.51
2019-02-10T07:37:36.948Z,7.53
2019-02-10T07:40:45.430Z,7.70
2019-02-10T07:43:53.857Z,7.73
2019-02-10T07:47:02.378Z,7.79
2019-02-10T07:50:10.848Z,7.84
2019-02-10T07:53:19.368Z,7.86
2019-02-10T07:56:28.856Z,7.89
2019-02-10T07:59:37.995Z,7.87
2019-02-10T08:02:45.218Z,7.96
2019-02-10T08:05:53.669Z,7.96
2019-02-10T08:09:02.136Z,8.01
2019-02-10T08:12:10.838Z,8.09
2019-02-10T08:15:19.386Z,8.13
2019-02-10T08:18:26.563Z,8.12
2019-02-10T08:21:16.051Z,8.14
2019-02-10T08:24:25.004Z,8.16
2019-02-10T08:27:15.582Z,8.22
2019-02-10T08:30:24.751Z,8.24
2019-02-10T08:33:34.504Z,8.24
2019-02-10T08:36:41.678Z,8.36
2019-02-10T08:39:48.923Z,8.37
2019-02-10T08:42:57.423Z,8.45
2019-02-10T08:46:06.013Z,8.53
2019-02-10T08:49:13.320Z,8.65
2019-02-10T08:52:22.212Z,8.63
2019-02-10T08:54:50.897Z,8.71
2019-02-10T08:57:19.610Z,8.76
2019-02-10T08:59:48.599Z,8.76
2019-02-10T09:02:17.240Z,8.91
2019-02-10T09:04:45.976Z,8.91
2019-02-10T09:07:15.461Z,8.94
2019-02-10T09:10:04.199Z,8.96
2019-02-10T09:12:32.944Z,8.98
2019-02-10T09:15:01.620Z,8.99
2019-02-10T09:17:30.287Z,9.00
2019-02-10T09:19:59.231Z,9.02
2019-02-10T09:22:28.381Z,9.10
2019-02-10T09:28:06.579Z,9.07
2019-02-10T09:33:25.343Z,9.16
2019-02-10T09:35:54.479Z,9.13
2019-02-10T09:38:23.871Z,9.24
2019-02-10T09:40:52.694Z,9.26
2019-02-10T09:43:21.393Z,9.32
2019-02-10T09:45:50.285Z,9.40
2019-02-10T09:48:19.007Z,9.46
2019-02-10T09:54:00.537Z,9.49
2019-02-10T09:56:48.504Z,9.56
2019-02-10T09:59:17.167Z,9.65
2019-02-10T10:01:45.814Z,9.68
2019-02-10T10:04:15.125Z,9.75
2019-02-10T10:07:23.863Z,9.69
2019-02-10T10:13:08.499Z,9.81
2019-02-10T10:15:37.215Z,9.91
2019-02-10T10:18:05.995Z,9.90
2019-02-10T10:20:34.641Z,9.94
2019-02-10T10:23:03.504Z,9.93
2019-02-10T10:25:32.163Z,9.93
2019-02-10T10:28:01.506Z,10.00
2019-02-10T10:30:30.852Z,10.00
2019-02-10T10:35:35.387Z,10.11
2019-02-10T10:38:23.180Z,10.19
2019-02-10T10:40:53.624Z,10.18
2019-02-10T10:43:22.998Z,10.28
2019-02-10T10:45:51.764Z,10.34
2019-02-10T10:48:20.583Z,10.45
2019-02-10T10:50:49.453Z,10.53
2019-02-10T10:53:18.219Z,10.60
2019-02-10T10:55:46.889Z,10.66
2019-02-10T10:58:15.773Z,10.66
2019-02-10T11:00:45.490Z,10.75
2019-02-10T11:03:14.183Z,10.71
2019-02-10T11:08:36.342Z,10.83
2019-02-10T11:11:05.106Z,10.85
2019-02-10T11:13:33.765Z,10.89
2019-02-10T11:18:50.932Z,10.99
2019-02-10T11:21:39.364Z,11.08
2019-02-10T11:24:08.061Z,11.02
2019-02-10T11:26:56.394Z,11.02
2019-02-10T11:29:25.435Z,11.00
2019-02-10T11:31:54.701Z,11.03
2019-02-10T11:35:03.287Z,11.06
2019-02-10T11:37:31.975Z,11.09
2019-02-10T11:40:01.505Z,11.11
2019-02-10T11:42:30.966Z,11.08
2019-02-10T11:44:59.641Z,11.09
2019-02-10T11:47:28.539Z,11.17
2019-02-10T11:49:58.225Z,11.27
2019-02-10T11:52:27.502Z,11.31
2019-02-10T11:54:56.195Z,11.34
2019-02-10T11:57:25.586Z,11.37
2019-02-10T11:59:54.808Z,11.43
2019-02-10T12:02:43.302Z,11.45
2019-02-10T12:05:33.018Z,11.50
2019-02-10T12:08:41.773Z,11.54
2019-02-10T12:11:10.479Z,11.64
2019-02-10T12:13:40.399Z,11.72
2019-02-10T12:16:09.545Z,11.81
2019-02-10T12:18:38.203Z,11.87
2019-02-10T12:21:06.917Z,11.89
2019-02-10T12:23:35.588Z,11.93
2019-02-10T12:26:23.580Z,12.08
2019-02-10T12:28:52.265Z,12.15
2019-02-10T12:31:21.027Z,12.15
2019-02-10T12:33:49.734Z,12.22
2019-02-10T12:36:37.682Z,12.38
2019-02-10T12:39:46.123Z,12.40
2019-02-10T12:42:14.890Z,12.36
2019-02-10T12:44:43.932Z,12.25
2019-02-10T12:47:12.998Z,12.24
2019-02-10T12:49:41.664Z,12.15
2019-02-10T12:52:10.426Z,12.14
2019-02-10T12:54:58.358Z,12.10
2019-02-10T12:57:27.041Z,12.13
2019-02-10T12:59:55.693Z,12.18
2019-02-10T13:02:24.410Z,12.16
2019-02-10T13:04:53.167Z,12.13
2019-02-10T13:07:21.860Z,12.10
2019-02-10T13:09:50.656Z,12.07
2019-02-10T13:12:19.469Z,12.02
2019-02-10T13:14:48.198Z,11.96
2019-02-10T13:20:29.324Z,11.91
2019-02-10T13:22:58.114Z,11.89
2019-02-10T13:25:46.036Z,11.83
2019-02-10T13:28:14.772Z,11.73
2019-02-10T13:30:43.480Z,11.87
2019-02-10T13:33:12.142Z,11.94
2019-02-10T13:35:40.920Z,11.92
2019-02-10T13:38:09.565Z,11.65
2019-02-10T13:40:38.270Z,11.11
2019-02-10T13:43:06.969Z,10.79
2019-02-10T13:45:35.796Z,10.62
2019-02-10T13:48:04.498Z,10.54
2019-02-10T13:50:33.485Z,10.49
2019-02-10T13:53:02.190Z,10.54
2019-02-10T13:55:30.947Z,10.32
2019-02-10T13:57:59.619Z,10.26
2019-02-10T14:00:28.390Z,10.18
2019-02-10T14:02:57.080Z,10.08
2019-02-10T14:05:25.792Z,10.14
2019-02-10T14:07:54.688Z,10.04
2019-02-10T14:10:25.651Z,9.95
2019-02-10T14:15:43.011Z,9.81
2019-02-10T14:18:11.666Z,9.85
2019-02-10T14:20:40.423Z,9.89
2019-02-10T14:23:09.133Z,9.86
2019-02-10T14:25:38.290Z,9.90
2019-02-10T14:28:07.070Z,9.99
2019-02-10T14:30:35.729Z,9.90
2019-02-10T14:33:04.461Z,9.92
2019-02-10T14:35:33.098Z,9.98
2019-02-10T14:38:01.895Z,9.96
2019-02-10T14:40:33.830Z,9.95
2019-02-10T14:43:00.948Z,9.91
2019-02-10T14:45:29.692Z,9.90
2019-02-10T14:47:58.391Z,9.90
2019-02-10T14:50:28.999Z,9.81
2019-02-10T14:52:58.101Z,9.75
2019-02-10T14:55:26.775Z,9.64
2019-02-10T14:57:55.540Z,9.63
2019-02-10T15:00:24.300Z,9.63
2019-02-10T15:02:52.998Z,9.65
2019-02-10T15:05:22.294Z,9.56
2019-02-10T15:07:50.938Z,9.43
2019-02-10T15:10:59.404Z,9.33
2019-02-10T15:13:47.319Z,9.28
2019-02-10T15:16:16.012Z,9.18
2019-02-10T15:18:44.832Z,9.14
2019-02-10T15:21:13.639Z,9.09
2019-02-10T15:23:42.386Z,9.03
2019-02-10T15:26:11.167Z,9.00
2019-02-10T15:28:39.829Z,8.95
2019-02-10T15:31:08.532Z,8.94
2019-02-10T15:33:37.397Z,8.86
2019-02-10T15:36:06.177Z,8.90
2019-02-10T15:38:34.844Z,8.95
2019-02-10T15:41:03.515Z,8.90
2019-02-10T15:43:32.211Z,8.92
2019-02-10T15:46:00.913Z,8.89
2019-02-10T15:48:29.561Z,8.86
2019-02-10T15:50:58.256Z,8.76
2019-02-10T15:53:26.942Z,8.71
2019-02-10T15:55:55.772Z,8.65
2019-02-10T15:58:43.817Z,8.52
2019-02-10T16:01:12.472Z,8.31
2019-02-10T16:03:41.129Z,8.11
2019-02-10T16:06:09.833Z,8.02
2019-02-10T16:08:38.501Z,7.95
2019-02-10T16:11:07.157Z,7.89
2019-02-10T16:13:35.852Z,7.80
2019-02-10T16:16:04.497Z,7.78
2019-02-10T16:18:33.214Z,7.75
2019-02-10T16:21:01.866Z,7.66
2019-02-10T16:23:49.664Z,7.60
2019-02-10T16:26:18.316Z,7.52
2019-02-10T16:28:47.151Z,7.45
2019-02-10T16:31:35.054Z,7.43
2019-02-10T16:34:03.739Z,7.45
2019-02-10T16:36:32.424Z,7.36
2019-02-10T16:41:50.326Z,7.27
2019-02-10T16:44:18.970Z,7.28
2019-02-10T16:46:49.542Z,7.29
2019-02-10T16:49:18.255Z,7.26
2019-02-10T16:52:06.172Z,7.28
2019-02-10T16:54:34.867Z,7.22
2019-02-10T16:57:03.501Z,7.19
2019-02-10T17:02:20.800Z,7.19
2019-02-10T17:04:49.449Z,7.13
2019-02-10T17:07:18.111Z,7.11
2019-02-10T17:12:41.812Z,7.07
2019-02-10T17:15:50.300Z,7.05
2019-02-10T17:18:19.000Z,7.02
2019-02-10T17:20:47.657Z,6.95
2019-02-10T17:23:16.348Z,6.93
2019-02-10T17:26:04.323Z,6.80
2019-02-10T17:28:33.013Z,6.50
2019-02-10T17:31:20.912Z,6.50
2019-02-10T17:33:49.624Z,6.31
2019-02-10T17:36:18.282Z,5.97
2019-02-10T17:38:47.001Z,5.87
2019-02-10T17:41:55.441Z,5.52
2019-02-10T17:44:24.143Z,5.26
2019-02-10T17:46:52.810Z,5.25
2019-02-10T17:49:21.496Z,5.25
2019-02-10T17:51:50.337Z,5.05
2019-02-10T17:54:19.058Z,4.54
2019-02-10T17:56:47.774Z,4.36
2019-02-10T17:59:16.414Z,4.41
2019-02-10T18:02:04.264Z,4.51
2019-02-10T18:04:37.574Z,4.52
2019-02-10T18:10:02.309Z,4.15
2019-02-10T18:12:31.036Z,4.04
2019-02-10T18:15:38.460Z,3.95
2019-02-10T18:18:45.553Z,3.87
2019-02-10T18:21:33.368Z,3.92
2019-02-10T18:27:10.429Z,4.02
2019-02-10T18:33:06.629Z,4.14
2019-02-10T18:35:54.857Z,4.20
2019-02-10T18:39:02.159Z,4.28
2019-02-10T18:41:49.993Z,4.30
2019-02-10T18:47:13.308Z,4.28
2019-02-10T18:50:20.505Z,4.28
2019-02-10T18:53:08.545Z,4.29
2019-02-10T19:01:11.783Z,4.24
2019-02-10T19:10:11.889Z,4.11
2019-02-10T19:13:19.039Z,4.14
2019-02-10T19:16:25.991Z,4.13
2019-02-10T19:22:39.978Z,4.11
2019-02-10T19:25:27.762Z,4.13
2019-02-10T19:28:34.852Z,4.12
2019-02-10T19:31:22.674Z,4.08
2019-02-10T19:34:10.960Z,4.05
2019-02-10T19:36:58.809Z,4.05
2019-02-10T19:39:46.570Z,4.00
2019-02-10T19:42:34.495Z,3.97
2019-02-10T19:48:03.347Z,3.94
2019-02-10T19:50:51.129Z,3.98
2019-02-10T19:53:38.949Z,3.94
2019-02-10T19:59:21.472Z,3.96
2019-02-10T20:04:58.509Z,3.87
2019-02-10T20:10:35.534Z,3.87
2019-02-10T20:13:23.395Z,3.87
2019-02-10T20:16:11.176Z,3.81
2019-02-10T20:19:18.181Z,3.80
2019-02-10T20:22:05.969Z,3.81
2019-02-10T20:24:53.794Z,3.90
2019-02-10T20:27:41.802Z,3.98
2019-02-10T20:30:50.354Z,3.97
2019-02-10T20:36:27.376Z,3.97
2019-02-10T20:39:34.596Z,4.01
2019-02-10T20:42:22.385Z,4.01
2019-02-10T20:45:10.184Z,4.04
2019-02-10T20:47:58.015Z,4.04
2019-02-10T20:50:45.899Z,4.08
2019-02-10T20:53:33.736Z,4.03
2019-02-10T20:56:21.583Z,4.04
2019-02-10T21:01:58.605Z,4.11
2019-02-10T21:04:48.526Z,4.18
2019-02-10T21:12:51.635Z,4.17
2019-02-10T21:15:39.478Z,4.13
2019-02-10T21:21:06.613Z,4.07
2019-02-10T21:23:54.432Z,4.02
2019-02-10T21:32:12.280Z,3.99
2019-02-10T21:35:00.255Z,3.94
2019-02-10T21:38:07.315Z,3.78
2019-02-10T21:43:30.392Z,3.67
2019-02-10T21:51:43.061Z,3.56
2019-02-10T21:54:31.031Z,3.53
2019-02-10T21:57:18.936Z,3.54
2019-02-10T21:59:47.862Z,3.52
2019-02-10T22:02:35.718Z,3.47
2019-02-10T22:05:44.211Z,3.49
2019-02-10T22:08:32.044Z,3.51
2019-02-10T22:11:00.734Z,3.50
2019-02-10T22:13:48.524Z,3.50
2019-02-10T22:16:17.357Z,3.49
2019-02-10T22:19:05.262Z,3.47
2019-02-10T22:21:33.975Z,3.41
2019-02-10T22:24:02.636Z,3.40
2019-02-10T22:26:31.298Z,3.41
2019-02-10T22:28:59.987Z,3.37
2019-02-10T22:34:22.071Z,3.32
2019-02-10T22:37:09.962Z,3.32
2019-02-10T22:39:57.869Z,3.33
2019-02-10T22:42:26.562Z,3.37
2019-02-10T22:45:14.495Z,3.39
2019-02-10T22:47:43.479Z,3.45
2019-02-10T22:50:51.952Z,3.42
2019-02-10T22:53:20.590Z,3.45
2019-02-10T22:55:49.302Z,3.48
2019-02-10T22:58:37.074Z,3.45
2019-02-10T23:01:45.543Z,3.44
2019-02-10T23:04:14.213Z,3.45
2019-02-10T23:06:42.984Z,3.43
2019-02-10T23:11:51.394Z,3.43
2019-02-10T23:14:20.058Z,3.48
2019-02-10T23:16:48.788Z,3.48
2019-02-10T23:19:17.506Z,3.49
2019-02-10T23:21:46.284Z,3.44
2019-02-10T23:24:14.934Z,3.44
2019-02-10T23:26:43.621Z,3.46
2019-02-10T23:29:31.894Z,3.33
2019-02-10T23:32:00.887Z,3.26
2019-02-10T23:34:29.569Z,3.25
2019-02-10T23:36:58.211Z,3.21
2019-02-10T23:39:26.916Z,3.10
2019-02-10T23:41:55.555Z,3.03
2019-02-10T23:44:24.253Z,3.03
2019-02-10T23:46:52.914Z,3.09
2019-02-10T23:49:21.605Z,3.03
2019-02-10T23:51:50.378Z,2.98
2019-02-10T23:54:19.096Z,2.98
2019-02-10T23:56:47.759Z,2.98
2019-02-10T23:59:16.448Z,2.91
